Time;durP1;ratioP1;P1;durP2;ratioP2;P2;SDS_P1;SDS_P2;PMS_P1;PMS_P2;Temp;Humidity;BMP_temperature;BMP_pressure;BME280_temperature;BME280_humidity;BME280_pressure;Samples;Min_cycle;Max_cycle;Signal;HPM_P1;HPM_P2
2021/04/06 00:02:09;;;;;;;26.27;3.80;;;4.70;99.90;;;;;;4981061;28;20263;-77
2021/04/06 00:04:40;;;;;;;19.40;4.13;;;4.70;99.90;;;;;;4981786;28;20210;-75
2021/04/06 00:07:10;;;;;;;19.40;4.73;;;4.80;99.90;;;;;;4992124;28;20257;-75
2021/04/06 00:09:38;;;;;;;25.17;5.03;;;4.80;99.90;;;;;;5022608;28;20255;-77
2021/04/06 00:12:08;;;;;;;19.13;4.23;;;4.80;99.90;;;;;;5021937;28;20202;-75
2021/04/06 00:14:38;;;;;;;16.23;3.50;;;4.80;99.90;;;;;;5003690;28;20246;-76
2021/04/06 00:17:09;;;;;;;19.10;4.13;;;4.60;99.90;;;;;;4982890;28;20196;-76
2021/04/06 00:19:40;;;;;;;26.77;4.20;;;4.60;99.90;;;;;;4982371;28;20204;-77
2021/04/06 00:22:07;;;;;;;16.97;3.87;;;4.60;99.90;;;;;;4984031;28;20215;-75
2021/04/06 00:24:38;;;;;;;20.93;4.73;;;4.70;99.90;;;;;;4982271;28;20212;-78
2021/04/06 00:27:12;;;;;;;12.30;3.20;;;4.60;99.90;;;;;;4981634;28;20192;-78
2021/04/06 00:29:43;;;;;;;14.90;3.87;;;4.50;99.90;;;;;;4981405;28;20215;-77
2021/04/06 00:32:10;;;;;;;15.40;3.23;;;4.40;99.90;;;;;;4982056;28;20808;-78
2021/04/06 00:34:37;;;;;;;12.83;2.80;;;4.40;99.90;;;;;;4981786;28;20784;-78
2021/04/06 00:37:07;;;;;;;11.00;2.20;;;4.30;99.90;;;;;;4981454;28;20258;-77
2021/04/06 00:39:36;;;;;;;19.27;4.77;;;4.30;99.90;;;;;;4981809;28;20297;-79
2021/04/06 00:42:06;;;;;;;10.43;2.80;;;4.30;99.90;;;;;;4981301;28;20266;-78
2021/04/06 00:44:37;;;;;;;15.90;3.37;;;4.30;99.90;;;;;;4982097;28;20346;-77
2021/04/06 00:47:05;;;;;;;17.17;4.60;;;4.40;99.90;;;;;;4980893;28;20295;-77
2021/04/06 00:49:34;;;;;;;16.00;3.37;;;4.30;99.90;;;;;;4981378;28;20232;-73
2021/04/06 00:52:04;;;;;;;15.83;3.23;;;4.20;99.90;;;;;;4982022;28;20216;-75
2021/04/06 00:54:30;;;;;;;10.23;2.40;;;4.10;99.90;;;;;;4983688;28;20259;-76
2021/04/06 00:56:59;;;;;;;11.93;2.77;;;4.00;99.90;;;;;;4985184;28;20204;-78
2021/04/06 00:59:27;;;;;;;10.07;3.10;;;3.90;99.90;;;;;;4985416;28;20235;-78
2021/04/06 01:01:58;;;;;;;12.27;3.53;;;3.80;99.90;;;;;;4985056;28;20257;-78
2021/04/06 01:04:27;;;;;;;14.53;3.23;;;3.80;99.90;;;;;;4984690;28;20960;-76
2021/04/06 01:06:57;;;;;;;5.57;1.87;;;3.70;99.90;;;;;;4990245;28;20208;-77
2021/04/06 01:09:54;;;;;;;12.23;2.87;;;3.70;99.90;;;;;;5024529;28;20229;-79
2021/04/06 01:12:22;;;;;;;9.67;2.33;;;3.70;99.90;;;;;;4943007;29;20193;-78
2021/04/06 01:14:50;;;;;;;12.73;2.43;;;3.70;99.90;;;;;;4984511;28;20236;-77
2021/04/06 01:17:17;;;;;;;13.93;3.63;;;3.60;99.90;;;;;;4984816;28;20204;-76
2021/04/06 01:19:45;;;;;;;8.17;2.23;;;3.60;99.90;;;;;;4985603;28;20893;-76
2021/04/06 01:22:14;;;;;;;8.37;2.43;;;3.50;99.90;;;;;;4985826;28;20211;-75
2021/04/06 01:24:43;;;;;;;19.80;3.57;;;3.50;99.90;;;;;;4985662;28;20238;-78
2021/04/06 01:27:13;;;;;;;17.53;3.13;;;3.50;99.90;;;;;;4985534;28;20247;-77
2021/04/06 01:29:40;;;;;;;13.93;2.90;;;3.60;99.90;;;;;;4985713;28;20271;-75
2021/04/06 01:32:07;;;;;;;13.20;4.03;;;3.60;99.90;;;;;;4984958;28;20212;-78
2021/04/06 01:34:34;;;;;;;21.47;3.90;;;3.70;99.90;;;;;;4985585;28;20207;-77
2021/04/06 01:37:01;;;;;;;14.47;2.80;;;3.70;99.90;;;;;;4984392;28;20218;-76
2021/04/06 01:39:29;;;;;;;11.73;3.13;;;3.80;99.90;;;;;;4984165;28;20236;-77
2021/04/06 01:41:58;;;;;;;5.43;1.40;;;3.90;99.90;;;;;;4985789;28;20225;-77
2021/04/06 01:44:25;;;;;;;9.43;2.87;;;3.80;99.90;;;;;;4985311;28;20246;-77
2021/04/06 01:46:51;;;;;;;10.13;2.17;;;3.80;99.90;;;;;;4984709;28;20303;-75
2021/04/06 01:49:18;;;;;;;12.63;3.03;;;3.80;99.90;;;;;;4985364;28;20216;-77
2021/04/06 01:51:46;;;;;;;12.90;3.10;;;3.80;99.90;;;;;;4985589;28;20271;-79
2021/04/06 01:54:14;;;;;;;26.67;3.73;;;3.90;99.90;;;;;;4984823;28;20746;-77
2021/04/06 01:56:46;;;;;;;16.93;4.03;;;4.00;99.90;;;;;;4985325;28;20575;-74
2021/04/06 01:59:17;;;;;;;18.80;3.43;;;4.00;99.90;;;;;;4985359;28;20857;-76
2021/04/06 02:01:48;;;;;;;25.33;5.13;;;4.00;99.90;;;;;;4983447;28;20520;-80
2021/04/06 02:04:19;;;;;;;19.67;4.13;;;3.90;99.90;;;;;;4984097;28;20292;-76
2021/04/06 02:06:47;;;;;;;15.63;3.13;;;3.90;99.90;;;;;;4986006;28;20204;-78
2021/04/06 02:09:14;;;;;;;12.57;2.47;;;3.80;99.90;;;;;;5023702;28;20301;-76
2021/04/06 02:11:41;;;;;;;12.40;2.67;;;3.80;99.90;;;;;;5023199;28;20202;-80
2021/04/06 02:14:10;;;;;;;6.83;2.00;;;3.90;99.90;;;;;;4998721;28;20235;-78
2021/04/06 02:16:48;;;;;;;8.63;1.97;;;3.80;99.90;;;;;;4985185;28;20207;-77
2021/04/06 02:19:22;;;;;;;15.00;3.20;;;3.90;99.90;;;;;;4984407;28;20670;-76
2021/04/06 02:21:49;;;;;;;6.67;1.77;;;3.90;99.90;;;;;;4984317;28;20214;-79
2021/04/06 02:24:25;;;;;;;8.10;1.67;;;3.80;99.90;;;;;;4984509;28;20300;-77
2021/04/06 02:26:58;;;;;;;14.40;2.33;;;3.80;99.90;;;;;;4984211;28;20846;-79
2021/04/06 02:29:25;;;;;;;18.40;2.93;;;3.90;99.90;;;;;;4984334;28;20224;-77
2021/04/06 02:31:52;;;;;;;12.70;2.57;;;3.90;99.90;;;;;;4985091;28;20235;-77
2021/04/06 02:34:19;;;;;;;13.43;2.40;;;3.90;99.90;;;;;;4984188;28;20215;-79
2021/04/06 02:36:46;;;;;;;16.43;2.83;;;3.90;99.90;;;;;;4983625;28;20223;-79
2021/04/06 02:39:13;;;;;;;9.37;2.30;;;3.90;99.90;;;;;;4983938;28;20248;-76
2021/04/06 02:41:39;;;;;;;16.17;2.63;;;3.90;99.90;;;;;;4984148;28;20242;-80
2021/04/06 02:44:06;;;;;;;9.13;2.63;;;3.90;99.90;;;;;;4985015;28;20210;-79
2021/04/06 02:46:35;;;;;;;15.20;3.27;;;3.90;99.90;;;;;;4983987;28;20207;-79
2021/04/06 02:49:02;;;;;;;17.70;3.37;;;4.00;99.90;;;;;;4983894;28;20218;-80
2021/04/06 02:51:29;;;;;;;13.53;2.90;;;3.90;99.90;;;;;;4984270;28;20232;-79
2021/04/06 02:53:55;;;;;;;12.57;2.53;;;3.70;99.90;;;;;;4983616;28;20588;-81
2021/04/06 02:56:32;;;;;;;15.47;2.53;;;3.70;99.90;;;;;;4988905;28;20215;-77
2021/04/06 02:59:16;;;;;;;17.63;4.10;;;3.60;99.90;;;;;;5003078;28;20256;-76
2021/04/06 03:01:43;;;;;;;12.33;3.10;;;3.50;99.90;;;;;;4993591;28;20215;-78
2021/04/06 03:04:21;;;;;;;16.47;4.10;;;3.50;99.90;;;;;;4982512;28;20204;-77
2021/04/06 03:06:48;;;;;;;15.33;3.47;;;3.50;99.90;;;;;;4986013;28;20211;-79
2021/04/06 03:09:15;;;;;;;15.10;3.63;;;3.50;99.90;;;;;;5022167;28;20210;-78
2021/04/06 03:11:44;;;;;;;11.90;2.10;;;3.50;99.90;;;;;;5022023;28;20257;-76
2021/04/06 03:14:10;;;;;;;10.70;2.50;;;3.60;99.90;;;;;;4986731;28;20282;-78
2021/04/06 03:16:37;;;;;;;14.47;2.90;;;3.60;99.90;;;;;;4983093;28;20211;-77
2021/04/06 03:19:05;;;;;;;15.37;3.97;;;3.60;99.90;;;;;;4981469;28;20199;-78
2021/04/06 03:21:33;;;;;;;10.43;2.87;;;3.70;99.90;;;;;;4982470;28;20212;-76
2021/04/06 03:24:00;;;;;;;15.10;2.50;;;3.60;99.90;;;;;;4982547;28;20953;-76
2021/04/06 03:26:27;;;;;;;13.00;2.57;;;3.60;99.90;;;;;;4982570;28;20212;-76
2021/04/06 03:28:57;;;;;;;8.67;2.30;;;3.60;99.90;;;;;;4982598;28;20266;-77
2021/04/06 03:31:27;;;;;;;13.60;2.87;;;3.60;99.90;;;;;;4981456;28;20220;-78
2021/04/06 03:33:54;;;;;;;6.53;1.50;;;3.50;99.90;;;;;;4982609;28;21047;-75
2021/04/06 03:36:21;;;;;;;8.33;2.17;;;3.40;99.90;;;;;;4982558;28;20300;-76
2021/04/06 03:38:52;;;;;;;7.67;1.60;;;3.40;99.90;;;;;;4981255;28;20582;-75
2021/04/06 03:41:19;;;;;;;7.00;2.03;;;3.30;99.90;;;;;;4982123;28;20199;-77
2021/04/06 03:43:45;;;;;;;6.00;1.50;;;3.40;99.90;;;;;;4982209;28;20204;-76
2021/04/06 03:46:12;;;;;;;6.60;1.67;;;3.30;99.90;;;;;;4982011;28;20215;-77
2021/04/06 03:48:39;;;;;;;8.57;1.73;;;3.30;99.90;;;;;;4982001;28;20210;-75
2021/04/06 03:51:23;;;;;;;6.67;2.00;;;3.30;99.90;;;;;;4981865;28;20290;-78
2021/04/06 03:53:51;;;;;;;9.27;2.70;;;3.20;99.90;;;;;;4980846;28;20207;-78
2021/04/06 03:56:18;;;;;;;8.20;1.87;;;3.30;99.90;;;;;;4981933;28;20223;-77
2021/04/06 03:58:45;;;;;;;6.50;1.80;;;3.30;99.90;;;;;;4982005;28;20204;-77
2021/04/06 04:01:13;;;;;;;11.23;1.90;;;3.40;99.90;;;;;;4981507;28;20219;-78
2021/04/06 04:03:40;;;;;;;9.47;1.23;;;3.30;99.90;;;;;;4981952;28;20235;-78
2021/04/06 04:06:06;;;;;;;6.97;1.47;;;3.10;99.90;;;;;;4980739;28;20568;-77
2021/04/06 04:08:33;;;;;;;9.07;1.93;;;3.10;99.90;;;;;;5013958;28;20206;-78
2021/04/06 04:11:00;;;;;;;6.50;1.47;;;3.00;99.90;;;;;;4981676;28;20228;-77
2021/04/06 04:13:27;;;;;;;4.17;0.93;;;2.90;99.90;;;;;;4981264;28;20227;-76
2021/04/06 04:15:53;;;;;;;3.87;1.30;;;2.80;99.90;;;;;;4981905;28;20230;-77
2021/04/06 04:18:20;;;;;;;8.00;1.63;;;2.80;99.90;;;;;;4982256;28;20204;-76
2021/04/06 04:20:46;;;;;;;5.23;1.40;;;2.70;99.90;;;;;;4983866;28;20876;-78
2021/04/06 04:23:13;;;;;;;11.27;2.20;;;2.70;99.90;;;;;;5001970;28;20212;-77
2021/04/06 04:25:40;;;;;;;8.50;1.80;;;2.70;99.90;;;;;;4985926;28;20214;-78
2021/04/06 04:28:07;;;;;;;8.60;1.70;;;2.80;99.90;;;;;;4981947;28;20210;-78
2021/04/06 04:30:38;;;;;;;9.47;2.40;;;2.80;99.90;;;;;;4981239;28;20810;-78
2021/04/06 04:33:06;;;;;;;7.97;2.03;;;2.80;99.90;;;;;;4982148;28;20270;-78
2021/04/06 04:35:33;;;;;;;7.40;2.77;;;2.90;99.90;;;;;;4981701;28;20208;-78
2021/04/06 04:37:59;;;;;;;13.10;3.00;;;2.90;99.90;;;;;;4982238;28;20208;-77
2021/04/06 04:40:26;;;;;;;9.23;2.30;;;3.10;99.90;;;;;;4981839;28;20623;-78
2021/04/06 04:42:52;;;;;;;9.80;2.13;;;3.20;99.90;;;;;;4981081;28;20219;-79
2021/04/06 04:45:20;;;;;;;5.47;2.00;;;3.20;99.90;;;;;;4982102;28;20223;-77
2021/04/06 04:47:47;;;;;;;12.40;2.53;;;3.30;99.90;;;;;;4981989;28;20211;-78
2021/04/06 04:50:14;;;;;;;5.80;1.83;;;3.30;99.90;;;;;;4981129;28;20231;-78
2021/04/06 04:52:43;;;;;;;11.50;2.27;;;3.40;99.90;;;;;;4981733;28;20348;-78
2021/04/06 04:55:11;;;;;;;7.80;1.87;;;3.40;99.90;;;;;;4982403;28;20207;-78
2021/04/06 04:57:37;;;;;;;11.13;2.30;;;3.50;99.90;;;;;;4981448;28;20207;-78
2021/04/06 05:00:05;;;;;;;9.73;2.33;;;3.50;99.90;;;;;;4981603;28;20212;-78
2021/04/06 05:02:32;;;;;;;3.93;1.77;;;3.60;99.90;;;;;;4980772;28;20199;-79
2021/04/06 05:04:58;;;;;;;12.53;2.20;;;3.50;99.90;;;;;;4981542;28;20664;-76
2021/04/06 05:07:25;;;;;;;11.43;1.93;;;3.60;99.90;;;;;;4994395;28;20198;-77
2021/04/06 05:09:51;;;;;;;4.83;1.67;;;3.60;99.90;;;;;;5019506;28;20522;-77
2021/04/06 05:12:18;;;;;;;11.87;2.70;;;3.50;99.90;;;;;;5020585;28;20203;-78
2021/04/06 05:14:45;;;;;;;7.73;2.03;;;3.70;99.90;;;;;;4986097;28;20718;-80
2021/04/06 05:17:11;;;;;;;7.40;1.90;;;3.70;99.90;;;;;;4980772;28;20741;-78
2021/04/06 05:19:39;;;;;;;9.20;1.80;;;3.70;99.90;;;;;;4981601;28;20204;-78
2021/04/06 05:22:05;;;;;;;9.93;2.23;;;3.70;99.90;;;;;;4981761;28;20208;-78
2021/04/06 05:24:32;;;;;;;12.40;2.10;;;3.70;99.90;;;;;;4981041;28;20406;-78
2021/04/06 05:26:58;;;;;;;8.73;1.63;;;3.80;99.90;;;;;;4981006;28;20216;-79
2021/04/06 05:29:25;;;;;;;12.67;2.27;;;3.80;99.90;;;;;;4981520;28;20211;-77
2021/04/06 05:31:51;;;;;;;7.27;2.57;;;3.90;99.90;;;;;;4981473;28;20200;-79
2021/04/06 05:34:17;;;;;;;10.93;2.83;;;3.90;99.90;;;;;;4981283;28;20204;-77
2021/04/06 05:36:45;;;;;;;13.23;2.47;;;3.90;99.90;;;;;;4981355;28;20203;-78
2021/04/06 05:39:11;;;;;;;12.27;2.30;;;3.90;99.90;;;;;;4981474;28;20244;-80
2021/04/06 05:41:43;;;;;;;11.07;2.93;;;4.00;99.90;;;;;;4983316;28;20200;-79
2021/04/06 05:44:10;;;;;;;10.00;2.03;;;4.00;99.90;;;;;;4997412;28;20621;-76
2021/04/06 05:46:38;;;;;;;6.17;1.70;;;3.90;99.90;;;;;;4987630;28;20567;-77
2021/04/06 05:49:08;;;;;;;9.40;2.60;;;3.70;99.90;;;;;;4985042;28;20219;-77
2021/04/06 05:51:37;;;;;;;4.10;1.50;;;3.60;99.90;;;;;;4983562;28;20227;-77
2021/04/06 05:54:06;;;;;;;6.23;1.73;;;3.50;99.90;;;;;;4984194;28;20246;-77
2021/04/06 05:56:33;;;;;;;6.40;1.47;;;3.40;99.90;;;;;;4983888;28;20215;-78
2021/04/06 05:58:59;;;;;;;9.80;1.50;;;3.40;99.90;;;;;;4983514;28;20592;-78
2021/04/06 06:01:27;;;;;;;5.90;1.57;;;3.40;99.90;;;;;;4984513;28;20212;-78
2021/04/06 06:03:54;;;;;;;8.97;1.80;;;3.40;99.90;;;;;;4984155;28;20725;-77
2021/04/06 06:06:22;;;;;;;11.10;1.70;;;3.40;99.90;;;;;;4983782;28;20215;-75
2021/04/06 06:08:51;;;;;;;10.40;2.20;;;3.50;99.90;;;;;;5005456;28;20220;-75
2021/04/06 06:11:18;;;;;;;12.47;2.20;;;3.50;99.90;;;;;;4984474;28;20223;-79
2021/04/06 06:13:45;;;;;;;13.93;1.97;;;3.50;99.90;;;;;;4983341;28;20215;-77
2021/04/06 06:16:14;;;;;;;5.80;1.70;;;3.50;99.90;;;;;;4984842;28;20679;-75
2021/04/06 06:19:04;;;;;;;10.50;2.10;;;3.50;99.90;;;;;;4983938;28;20236;-76
2021/04/06 06:21:42;;;;;;;5.97;1.63;;;3.40;99.90;;;;;;4984611;28;20793;-77
2021/04/06 06:24:10;;;;;;;5.93;1.57;;;3.30;99.90;;;;;;4983883;28;20675;-77
2021/04/06 06:26:38;;;;;;;6.80;1.33;;;3.20;99.90;;;;;;4984406;28;20211;-77
2021/04/06 06:29:10;;;;;;;7.53;1.47;;;3.00;99.90;;;;;;4983982;28;20659;-77
2021/04/06 06:31:42;;;;;;;10.47;2.00;;;2.90;99.90;;;;;;4983677;28;20224;-76
2021/04/06 06:34:39;;;;;;;12.13;2.23;;;2.80;99.90;;;;;;4983646;28;20815;-76
2021/04/06 06:37:08;;;;;;;6.87;1.90;;;2.80;99.90;;;;;;4934198;29;20216;-76
2021/04/06 06:39:35;;;;;;;9.33;1.83;;;2.90;99.90;;;;;;4983583;28;20541;-76
2021/04/06 06:42:04;;;;;;;6.90;1.93;;;3.10;99.90;;;;;;5002996;28;20744;-78
2021/04/06 06:44:31;;;;;;;12.27;1.67;;;3.10;99.90;;;;;;4990368;28;21040;-77
2021/04/06 06:47:06;;;;;;;8.33;1.77;;;3.00;99.90;;;;;;4983492;28;20204;-75
2021/04/06 06:49:35;;;;;;;5.60;1.50;;;2.90;99.90;;;;;;4982050;28;20709;-75
2021/04/06 06:52:01;;;;;;;6.03;1.73;;;2.80;99.90;;;;;;4983374;28;20868;-74
2021/04/06 06:54:35;;;;;;;10.13;1.93;;;2.80;99.90;;;;;;4983823;28;20204;-76
2021/04/06 06:57:13;;;;;;;6.97;1.90;;;2.90;99.90;;;;;;4982790;28;20223;-77
2021/04/06 06:59:43;;;;;;;11.90;2.67;;;2.90;99.90;;;;;;5002230;28;20610;-74
2021/04/06 07:02:23;;;;;;;9.63;2.07;;;3.00;99.90;;;;;;5002080;28;20235;-74
2021/04/06 07:04:50;;;;;;;8.10;2.17;;;3.00;99.90;;;;;;5002321;28;20243;-75
2021/04/06 07:07:17;;;;;;;13.30;2.13;;;3.10;99.90;;;;;;4987873;28;20208;-76
2021/04/06 07:10:08;;;;;;;14.00;1.97;;;3.30;99.90;;;;;;4984449;28;20601;-73
2021/04/06 07:12:36;;;;;;;10.93;1.87;;;3.50;99.90;;;;;;5001608;28;20206;-76
2021/04/06 07:15:04;;;;;;;5.80;1.87;;;3.70;99.90;;;;;;4991780;28;20280;-74
2021/04/06 07:17:30;;;;;;;7.33;1.90;;;3.80;99.90;;;;;;4981785;28;20210;-76
2021/04/06 07:19:57;;;;;;;7.33;2.53;;;4.00;99.90;;;;;;4982497;28;20196;-76
2021/04/06 07:22:24;;;;;;;8.20;1.90;;;4.10;99.90;;;;;;4982080;28;20618;-75
2021/04/06 07:24:50;;;;;;;7.43;2.93;;;4.30;99.90;;;;;;4981760;28;20204;-77
2021/04/06 07:27:17;;;;;;;12.20;2.17;;;4.40;99.90;;;;;;4925604;28;20905;-76
2021/04/06 07:29:44;;;;;;;8.03;1.90;;;4.40;99.90;;;;;;4982359;28;20208;-77
2021/04/06 07:32:13;;;;;;;6.73;2.10;;;4.40;99.90;;;;;;4981693;28;20648;-75
2021/04/06 07:34:41;;;;;;;9.17;2.80;;;4.50;99.90;;;;;;4981590;28;20263;-76
2021/04/06 07:37:08;;;;;;;11.40;2.40;;;4.50;99.90;;;;;;4981652;28;20293;-77
2021/04/06 07:39:35;;;;;;;9.83;3.03;;;4.60;99.90;;;;;;4981994;28;20251;-78
2021/04/06 07:42:02;;;;;;;12.00;2.60;;;4.70;99.90;;;;;;4982432;28;20522;-76
2021/04/06 07:44:30;;;;;;;13.40;2.20;;;4.90;99.90;;;;;;4981335;28;20297;-76
2021/04/06 07:46:57;;;;;;;7.83;1.70;;;5.00;99.90;;;;;;4981012;28;20208;-79
2021/04/06 07:49:37;;;;;;;10.97;2.17;;;5.20;99.90;;;;;;4981644;28;20287;-79
2021/04/06 07:52:14;;;;;;;7.60;1.97;;;5.20;99.90;;;;;;4981569;28;20319;-79
2021/04/06 07:54:47;;;;;;;6.17;1.83;;;5.10;99.90;;;;;;4982138;28;20208;-78
2021/04/06 07:57:13;;;;;;;12.20;2.50;;;5.10;99.90;;;;;;4982260;28;20216;-79
2021/04/06 08:00:00;;;;;;;8.80;3.07;;;5.20;99.90;;;;;;4981888;28;20559;-79
2021/04/06 08:02:29;;;;;;;10.83;2.63;;;5.20;99.90;;;;;;4982477;28;20207;-79
2021/04/06 08:05:00;;;;;;;14.47;3.77;;;5.10;99.90;;;;;;4982013;28;20199;-77
2021/04/06 08:07:32;;;;;;;5.50;1.60;;;5.20;99.90;;;;;;4995829;28;20214;-78
2021/04/06 08:10:17;;;;;;;3.83;1.30;;;5.20;99.90;;;;;;4985881;28;20216;-79
2021/04/06 08:12:46;;;;;;;5.53;1.90;;;5.10;99.90;;;;;;4981850;28;20247;-78
2021/04/06 08:15:15;;;;;;;8.17;1.70;;;5.10;99.90;;;;;;4987875;28;20234;-78
2021/04/06 08:17:48;;;;;;;6.70;2.00;;;5.30;99.90;;;;;;5002077;28;20572;-79
2021/04/06 08:20:20;;;;;;;7.63;1.60;;;5.50;99.90;;;;;;5001568;28;20199;-80
2021/04/06 08:22:52;;;;;;;6.13;1.53;;;5.70;99.90;;;;;;4985848;28;20344;-78
2021/04/06 08:25:53;;;;;;;11.47;1.70;;;6.00;99.90;;;;;;4982608;28;20230;-79
2021/04/06 08:28:38;;;;;;;6.40;1.83;;;6.10;99.90;;;;;;4981701;28;20319;-80
2021/04/06 08:31:33;;;;;;;4.87;1.70;;;6.40;99.90;;;;;;4982363;28;20227;-78
2021/04/06 08:34:29;;;;;;;8.00;2.37;;;6.60;99.90;;;;;;4975014;28;20211;-78
2021/04/06 08:37:13;;;;;;;6.53;1.57;;;6.60;99.90;;;;;;4974749;28;20218;-79
2021/04/06 08:39:39;;;;;;;6.17;1.63;;;6.60;99.90;;;;;;4981333;28;20232;-79
2021/04/06 08:42:08;;;;;;;6.40;2.00;;;6.80;99.90;;;;;;4981632;28;20204;-79
2021/04/06 08:44:36;;;;;;;9.17;2.37;;;6.90;99.90;;;;;;4982103;28;20214;-78
2021/04/06 08:47:03;;;;;;;10.27;2.40;;;6.80;99.90;;;;;;4981070;28;20317;-79
2021/04/06 08:49:30;;;;;;;11.63;2.47;;;6.60;99.90;;;;;;4980905;28;20203;-80
2021/04/06 08:51:58;;;;;;;8.23;1.97;;;6.20;99.90;;;;;;4981841;28;20232;-77
2021/04/06 08:54:27;;;;;;;7.57;2.00;;;6.00;99.90;;;;;;4981664;28;20200;-78
2021/04/06 08:56:54;;;;;;;9.83;3.00;;;6.00;99.90;;;;;;4981883;28;20646;-78
2021/04/06 08:59:24;;;;;;;9.03;1.93;;;5.80;99.90;;;;;;4982536;28;20200;-77
2021/04/06 09:01:55;;;;;;;8.93;1.60;;;5.70;99.90;;;;;;4990907;28;20214;-78
2021/04/06 09:04:23;;;;;;;6.80;1.73;;;5.70;99.90;;;;;;5001747;28;20262;-81
2021/04/06 09:06:51;;;;;;;11.57;2.37;;;5.80;99.90;;;;;;5003235;28;20230;-79
2021/04/06 09:09:19;;;;;;;6.53;1.63;;;6.00;99.90;;;;;;5005029;28;20212;-78
2021/04/06 09:11:46;;;;;;;7.20;1.77;;;6.00;99.90;;;;;;4981106;28;20228;-79
2021/04/06 09:14:13;;;;;;;4.80;1.60;;;6.20;99.90;;;;;;4981896;28;20227;-78
2021/04/06 09:16:39;;;;;;;6.67;1.80;;;6.40;99.90;;;;;;4983035;28;20987;-77
2021/04/06 09:19:09;;;;;;;8.40;2.03;;;6.70;99.90;;;;;;4984994;28;20752;-78
2021/04/06 09:21:36;;;;;;;5.47;1.70;;;7.00;99.90;;;;;;4985641;28;20211;-77
2021/04/06 09:24:07;;;;;;;10.70;2.20;;;7.10;99.90;;;;;;4984807;28;20542;-77
2021/04/06 09:26:34;;;;;;;9.83;2.53;;;7.10;99.90;;;;;;4994220;28;20607;-76
2021/04/06 09:29:12;;;;;;;10.93;3.33;;;7.20;99.90;;;;;;5005443;28;20203;-80
2021/04/06 09:31:42;;;;;;;7.50;1.80;;;7.20;99.90;;;;;;5005263;28;20223;-81
2021/04/06 09:34:13;;;;;;;12.67;1.87;;;7.00;99.90;;;;;;4989542;28;20227;-79
2021/04/06 09:36:41;;;;;;;5.23;1.63;;;6.80;99.90;;;;;;4984469;28;20212;-79
2021/04/06 09:39:10;;;;;;;6.53;1.87;;;6.40;99.90;;;;;;4983878;28;20281;-76
2021/04/06 09:41:40;;;;;;;3.87;1.47;;;6.00;99.90;;;;;;5004473;28;20345;-79
2021/04/06 09:44:09;;;;;;;11.53;2.20;;;5.90;99.90;;;;;;5001765;28;20229;-78
2021/04/06 09:46:39;;;;;;;5.17;1.00;;;5.70;99.90;;;;;;5024088;28;20207;-76
2021/04/06 09:49:06;;;;;;;7.03;1.43;;;5.70;99.90;;;;;;5000385;28;20642;-79
2021/04/06 09:51:33;;;;;;;9.03;1.53;;;5.80;99.90;;;;;;4983287;28;20278;-78
2021/04/06 09:54:01;;;;;;;10.30;2.67;;;6.10;99.90;;;;;;4983601;28;20216;-79
2021/04/06 09:56:29;;;;;;;8.37;2.10;;;6.40;99.90;;;;;;4983753;28;20215;-76
2021/04/06 09:58:55;;;;;;;8.90;3.10;;;6.60;99.90;;;;;;4982317;28;20212;-79
2021/04/06 10:01:26;;;;;;;10.67;2.60;;;6.70;99.90;;;;;;4985664;28;20203;-81
2021/04/06 10:03:58;;;;;;;12.57;2.57;;;6.60;99.90;;;;;;4990523;28;20738;-79
2021/04/06 10:06:38;;;;;;;15.17;2.80;;;6.20;99.90;;;;;;4985767;28;20226;-81
2021/04/06 10:09:22;;;;;;;12.00;2.50;;;6.00;99.90;;;;;;4995744;28;20276;-79
2021/04/06 10:11:51;;;;;;;13.30;3.17;;;6.20;99.90;;;;;;4996531;28;20231;-80
2021/04/06 10:14:18;;;;;;;6.93;1.40;;;6.50;99.90;;;;;;4984183;28;20598;-80
2021/04/06 10:16:45;;;;;;;4.90;1.50;;;6.80;99.90;;;;;;4984930;28;20215;-80
2021/04/06 10:19:20;;;;;;;7.07;1.40;;;6.70;99.90;;;;;;4983766;28;20675;-78
2021/04/06 10:21:58;;;;;;;6.40;1.77;;;6.60;99.90;;;;;;4986283;28;20294;-81
2021/04/06 10:24:27;;;;;;;6.50;2.10;;;6.50;99.90;;;;;;4998870;28;20214;-79
2021/04/06 10:27:14;;;;;;;7.97;2.00;;;6.50;99.90;;;;;;4999928;28;20219;-80
2021/04/06 10:29:40;;;;;;;11.47;2.60;;;6.50;99.90;;;;;;4983866;28;20921;-81
2021/04/06 10:32:08;;;;;;;8.60;2.10;;;6.30;99.90;;;;;;4983580;28;20227;-81
2021/04/06 10:34:34;;;;;;;11.87;2.27;;;6.20;99.90;;;;;;4983105;28;20204;-79
2021/04/06 10:37:04;;;;;;;11.50;1.90;;;6.20;99.90;;;;;;4983272;28;20649;-81
2021/04/06 10:39:42;;;;;;;7.23;1.43;;;6.20;99.90;;;;;;4983741;28;20247;-78
2021/04/06 10:42:11;;;;;;;9.83;2.10;;;6.10;99.90;;;;;;4983663;28;20246;-79
2021/04/06 10:44:40;;;;;;;8.90;1.57;;;6.00;99.90;;;;;;4983175;28;20223;-81
2021/04/06 10:47:06;;;;;;;9.90;1.60;;;6.00;99.90;;;;;;4983070;28;20216;-83
2021/04/06 10:49:33;;;;;;;7.07;1.40;;;6.30;99.90;;;;;;4983490;28;20663;-77
2021/04/06 10:52:02;;;;;;;7.87;1.60;;;6.60;99.90;;;;;;4982966;28;20702;-79
2021/04/06 10:54:28;;;;;;;6.90;2.07;;;7.00;99.90;;;;;;4982555;28;20607;-79
2021/04/06 10:56:58;;;;;;;6.07;2.13;;;7.30;99.90;;;;;;4983515;28;20266;-78
2021/04/06 10:59:30;;;;;;;9.57;2.07;;;7.50;99.90;;;;;;4983530;28;20208;-79
2021/04/06 11:01:58;;;;;;;12.93;2.90;;;7.50;99.90;;;;;;4982586;28;20203;-78
2021/04/06 11:04:25;;;;;;;7.17;2.10;;;7.50;99.90;;;;;;4983916;28;20505;-79
2021/04/06 11:06:58;;;;;;;7.77;1.97;;;7.50;99.90;;;;;;4983803;28;20247;-79
2021/04/06 11:09:26;;;;;;;12.73;2.63;;;7.30;99.90;;;;;;4983039;28;20219;-78
2021/04/06 11:11:54;;;;;;;7.30;2.47;;;7.00;99.90;;;;;;4983630;28;20235;-78
2021/04/06 11:14:23;;;;;;;16.73;3.23;;;7.00;99.90;;;;;;4983222;28;20236;-79
2021/04/06 11:16:51;;;;;;;13.27;2.73;;;7.20;99.90;;;;;;4982493;28;20200;-79
2021/04/06 11:19:22;;;;;;;12.27;2.47;;;7.50;99.90;;;;;;4983520;28;20204;-78
2021/04/06 11:21:50;;;;;;;10.70;2.60;;;7.70;99.90;;;;;;4984956;28;20196;-80
2021/04/06 11:24:18;;;;;;;7.33;2.13;;;7.70;99.90;;;;;;4983459;28;20222;-85
2021/04/06 11:26:44;;;;;;;8.60;2.23;;;7.90;99.90;;;;;;4984191;28;20226;-81
2021/04/06 11:29:14;;;;;;;12.90;2.57;;;8.30;99.90;;;;;;4982956;28;20200;-79
2021/04/06 11:31:43;;;;;;;7.33;1.90;;;8.20;99.90;;;;;;4983999;28;20231;-78
2021/04/06 11:34:10;;;;;;;5.20;1.70;;;8.10;99.90;;;;;;4984944;28;20212;-77
2021/04/06 11:36:37;;;;;;;9.33;2.33;;;7.90;99.90;;;;;;4982953;28;20210;-76
2021/04/06 11:39:06;;;;;;;9.13;1.87;;;7.40;99.90;;;;;;4982974;28;20249;-77
2021/04/06 11:41:33;;;;;;;6.57;2.00;;;7.00;99.90;;;;;;4983292;28;20585;-78
2021/04/06 11:43:59;;;;;;;9.50;2.23;;;6.80;99.90;;;;;;4984414;28;20204;-81
2021/04/06 11:46:25;;;;;;;12.40;2.17;;;6.60;99.90;;;;;;4984681;28;20285;-81
2021/04/06 11:48:52;;;;;;;8.80;1.80;;;6.20;99.90;;;;;;4982828;28;20215;-78
2021/04/06 11:51:20;;;;;;;5.97;1.10;;;5.80;99.90;;;;;;4983134;28;20285;-82
2021/04/06 11:53:46;;;;;;;4.57;1.07;;;5.50;99.90;;;;;;4983841;28;20635;-79
2021/04/06 11:56:12;;;;;;;2.20;0.80;;;5.50;99.90;;;;;;4983360;28;20208;-79
2021/04/06 11:58:39;;;;;;;8.80;2.13;;;5.70;99.90;;;;;;4982228;28;20339;-78
2021/04/06 12:01:05;;;;;;;4.73;1.20;;;6.10;99.90;;;;;;4982471;28;20389;-79
2021/04/06 12:03:31;;;;;;;6.90;1.47;;;6.40;99.90;;;;;;4982514;28;20301;-78
2021/04/06 12:05:58;;;;;;;6.97;1.37;;;6.60;99.90;;;;;;4982212;28;20203;-78
2021/04/06 12:08:25;;;;;;;6.33;1.63;;;6.70;99.90;;;;;;5011563;28;20209;-79
2021/04/06 12:10:52;;;;;;;8.90;1.83;;;7.00;99.90;;;;;;4997065;28;20271;-79
2021/04/06 12:13:18;;;;;;;14.53;2.20;;;7.20;99.90;;;;;;4982329;28;20204;-79
2021/04/06 12:15:45;;;;;;;6.23;1.97;;;7.20;99.90;;;;;;4981919;28;20587;-80
2021/04/06 12:18:11;;;;;;;7.17;1.40;;;6.90;99.90;;;;;;4982321;28;20232;-79
2021/04/06 12:20:37;;;;;;;6.40;1.40;;;6.70;99.90;;;;;;4981523;28;20208;-78
2021/04/06 12:23:04;;;;;;;6.53;1.53;;;6.80;99.90;;;;;;4982292;28;20207;-78
2021/04/06 12:25:31;;;;;;;8.00;2.27;;;7.10;99.90;;;;;;4982110;28;20581;-81
2021/04/06 12:27:57;;;;;;;9.30;1.93;;;7.20;99.90;;;;;;4982811;28;20513;-78
2021/04/06 12:30:24;;;;;;;5.87;1.60;;;7.20;99.90;;;;;;4983378;28;20342;-81
2021/04/06 12:32:51;;;;;;;7.33;1.70;;;7.20;99.90;;;;;;4982609;28;20200;-81
2021/04/06 12:35:17;;;;;;;8.63;2.07;;;7.00;99.90;;;;;;4982708;28;20200;-76
2021/04/06 12:37:43;;;;;;;5.77;1.40;;;7.10;99.90;;;;;;4981790;28;20975;-78
2021/04/06 12:40:10;;;;;;;7.03;2.03;;;7.20;99.90;;;;;;4981601;28;20270;-80
2021/04/06 12:42:38;;;;;;;9.23;1.60;;;7.20;99.90;;;;;;4982037;28;20204;-77
2021/04/06 12:45:07;;;;;;;8.47;1.70;;;7.40;99.90;;;;;;4982141;28;20230;-80
2021/04/06 12:47:33;;;;;;;6.63;1.70;;;7.60;99.90;;;;;;4981092;28;20561;-79
2021/04/06 12:50:00;;;;;;;11.63;2.13;;;7.50;99.90;;;;;;4983800;28;20212;-79
2021/04/06 12:52:27;;;;;;;7.03;1.60;;;7.40;99.90;;;;;;4987049;28;20223;-79
2021/04/06 12:54:53;;;;;;;3.87;1.23;;;7.60;99.90;;;;;;4980778;28;20222;-84
2021/04/06 12:57:20;;;;;;;8.90;2.03;;;7.60;99.90;;;;;;4986833;28;20204;-79
2021/04/06 12:59:47;;;;;;;7.57;1.87;;;7.50;99.90;;;;;;4987567;28;20196;-81
2021/04/06 13:02:13;;;;;;;4.43;1.17;;;7.20;99.90;;;;;;5000238;28;20250;-79
2021/04/06 13:04:39;;;;;;;4.97;1.17;;;6.60;99.90;;;;;;5005528;28;20203;-79